Time;durP1;ratioP1;P1;durP2;ratioP2;P2;SDS_P1;SDS_P2;PMS_P1;PMS_P2;Temp;Humidity;BMP_temperature;BMP_pressure;BME280_temperature;BME280_humidity;BME280_pressure;Samples;Min_cycle;Max_cycle;Signal;HPM_P1;HPM_P2
2022/07/26 00:01:38;;;;;;;7.33;2.53;;;;;;;;;;5095591;28;20943;-65
2022/07/26 00:04:07;;;;;;;8.80;2.80;;;;;;;;;;5095494;28;20521;-65
2022/07/26 00:06:34;;;;;;;3.60;2.50;;;;;;;;;;5095499;28;20452;-64
2022/07/26 00:09:01;;;;;;;5.90;2.37;;;;;;;;;;5095503;28;20804;-65
2022/07/26 00:11:32;;;;;;;8.07;3.37;;;;;;;;;;5095543;28;20437;-65
2022/07/26 00:13:59;;;;;;;7.27;2.63;;;;;;;;;;5095424;28;20524;-65
2022/07/26 00:16:26;;;;;;;9.43;2.63;;;;;;;;;;5095212;28;20474;-65
2022/07/26 00:18:54;;;;;;;12.00;2.70;;;;;;;;;;5094845;28;20449;-65
2022/07/26 00:21:22;;;;;;;5.27;3.00;;;;;;;;;;5095613;28;20441;-64
2022/07/26 00:23:49;;;;;;;10.33;2.47;;;;;;;;;;5095360;28;20549;-64
2022/07/26 00:26:17;;;;;;;3.60;2.60;;;;;;;;;;5095175;28;20552;-64
2022/07/26 00:28:44;;;;;;;8.43;2.47;;;;;;;;;;5094640;28;20444;-65
2022/07/26 00:31:11;;;;;;;10.70;3.00;;;;;;;;;;5095451;28;20453;-64
2022/07/26 00:33:39;;;;;;;7.00;2.90;;;;;;;;;;5094550;28;20981;-65
2022/07/26 00:36:06;;;;;;;5.60;2.90;;;;;;;;;;5094975;28;20446;-64
2022/07/26 00:38:35;;;;;;;10.00;3.70;;;;;;;;;;5093805;28;20922;-65
2022/07/26 00:41:02;;;;;;;10.83;3.13;;;;;;;;;;5094881;28;20485;-65
2022/07/26 00:43:29;;;;;;;8.67;2.67;;;;;;;;;;5094452;28;20523;-65
2022/07/26 00:45:57;;;;;;;9.10;3.03;;;;;;;;;;5094458;28;20449;-64
2022/07/26 00:48:24;;;;;;;7.27;2.40;;;;;;;;;;5094744;28;20463;-64
2022/07/26 00:50:53;;;;;;;6.50;2.53;;;;;;;;;;5094232;28;20502;-64
2022/07/26 00:53:20;;;;;;;6.63;3.93;;;;;;;;;;5094517;28;20565;-64
2022/07/26 00:55:50;;;;;;;5.83;2.83;;;;;;;;;;5094548;28;20446;-64
2022/07/26 00:58:17;;;;;;;7.23;2.57;;;;;;;;;;5094755;28;20544;-64
2022/07/26 01:00:45;;;;;;;9.00;3.03;;;;;;;;;;5094124;28;21040;-64
2022/07/26 01:03:12;;;;;;;6.70;2.40;;;;;;;;;;5094128;28;20539;-64
2022/07/26 01:05:39;;;;;;;5.30;3.20;;;;;;;;;;5094345;28;20440;-64
2022/07/26 01:08:06;;;;;;;7.77;2.60;;;;;;;;;;5094082;28;20446;-64
2022/07/26 01:10:34;;;;;;;8.40;3.37;;;;;;;;;;5094303;28;20544;-66
2022/07/26 01:13:02;;;;;;;3.60;2.73;;;;;;;;;;5094252;28;20562;-64
2022/07/26 01:15:29;;;;;;;4.30;2.57;;;;;;;;;;5093854;28;20986;-65
2022/07/26 01:17:57;;;;;;;3.97;2.70;;;;;;;;;;5094592;28;20491;-65
2022/07/26 01:20:24;;;;;;;5.80;2.53;;;;;;;;;;5094117;28;20440;-65
2022/07/26 01:22:52;;;;;;;6.30;2.63;;;;;;;;;;5094157;28;20451;-65
2022/07/26 01:25:29;;;;;;;8.23;3.20;;;;;;;;;;5093625;28;20532;-65
2022/07/26 01:27:56;;;;;;;9.30;2.53;;;;;;;;;;5094614;28;20439;-65
2022/07/26 01:30:23;;;;;;;3.87;2.40;;;;;;;;;;5093954;28;20443;-64
2022/07/26 01:32:50;;;;;;;4.27;2.07;;;;;;;;;;5093586;28;20479;-66
2022/07/26 01:35:18;;;;;;;6.23;3.47;;;;;;;;;;5094161;28;20444;-64
2022/07/26 01:37:45;;;;;;;6.10;2.50;;;;;;;;;;5093610;28;20525;-64
2022/07/26 01:40:14;;;;;;;8.90;3.17;;;;;;;;;;5093795;28;20772;-65
2022/07/26 01:42:41;;;;;;;6.03;2.57;;;;;;;;;;5093884;28;20473;-64
2022/07/26 01:45:09;;;;;;;6.60;2.73;;;;;;;;;;5093743;28;20437;-64
2022/07/26 01:47:36;;;;;;;5.20;3.93;;;;;;;;;;5093462;28;20998;-64
2022/07/26 01:50:04;;;;;;;7.50;2.60;;;;;;;;;;5093702;28;20443;-65
2022/07/26 01:52:31;;;;;;;5.13;2.80;;;;;;;;;;5093713;28;20450;-64
2022/07/26 01:54:59;;;;;;;3.60;2.70;;;;;;;;;;5093316;28;20554;-65
2022/07/26 01:57:28;;;;;;;4.93;3.00;;;;;;;;;;5093422;28;20480;-64
2022/07/26 01:59:55;;;;;;;3.83;2.70;;;;;;;;;;5093558;28;20444;-65
2022/07/26 02:02:22;;;;;;;4.50;2.20;;;;;;;;;;5094041;28;20440;-65
2022/07/26 02:04:58;;;;;;;4.47;2.40;;;;;;;;;;5093238;28;20447;-65
2022/07/26 02:07:25;;;;;;;5.30;3.10;;;;;;;;;;5094085;28;20437;-64
2022/07/26 02:09:52;;;;;;;9.13;2.67;;;;;;;;;;5093485;28;20440;-65
2022/07/26 02:12:20;;;;;;;4.40;2.33;;;;;;;;;;5093202;28;20439;-64
2022/07/26 02:14:48;;;;;;;6.27;2.10;;;;;;;;;;5093803;28;20487;-65
2022/07/26 02:17:15;;;;;;;6.43;2.50;;;;;;;;;;5093445;28;20503;-65
2022/07/26 02:19:43;;;;;;;4.87;2.67;;;;;;;;;;5093093;28;20939;-65
2022/07/26 02:22:10;;;;;;;6.00;2.80;;;;;;;;;;5093421;28;20437;-65
2022/07/26 02:24:37;;;;;;;4.27;2.80;;;;;;;;;;5093425;28;20559;-65
2022/07/26 02:27:05;;;;;;;7.47;2.97;;;;;;;;;;5093307;28;20528;-64
2022/07/26 02:29:33;;;;;;;6.63;2.43;;;;;;;;;;5093337;28;20447;-64
2022/07/26 02:32:01;;;;;;;5.27;3.07;;;;;;;;;;5093273;28;20440;-64
2022/07/26 02:34:29;;;;;;;8.03;2.70;;;;;;;;;;5092959;28;21028;-65
2022/07/26 02:36:56;;;;;;;10.07;3.27;;;;;;;;;;5093185;28;20538;-64
2022/07/26 02:39:26;;;;;;;8.23;2.90;;;;;;;;;;5093292;28;20790;-64
2022/07/26 02:41:53;;;;;;;6.10;3.13;;;;;;;;;;5092961;28;20428;-64
2022/07/26 02:44:21;;;;;;;7.73;3.23;;;;;;;;;;5093343;28;20440;-65
2022/07/26 02:46:48;;;;;;;4.70;3.00;;;;;;;;;;5092780;28;20509;-65
2022/07/26 02:49:16;;;;;;;5.97;3.07;;;;;;;;;;5093178;28;20528;-65
2022/07/26 02:51:44;;;;;;;6.30;3.20;;;;;;;;;;5093267;28;20529;-65
2022/07/26 02:54:11;;;;;;;7.30;2.80;;;;;;;;;;5093108;28;20496;-65
2022/07/26 02:56:38;;;;;;;9.80;4.10;;;;;;;;;;5093009;28;20535;-65
2022/07/26 02:59:06;;;;;;;7.50;2.90;;;;;;;;;;5093241;28;20528;-65
2022/07/26 03:01:34;;;;;;;7.43;3.10;;;;;;;;;;5093527;28;20432;-65
2022/07/26 03:04:01;;;;;;;6.20;2.87;;;;;;;;;;5096728;28;20547;-65
2022/07/26 03:06:30;;;;;;;8.20;3.00;;;;;;;;;;5096627;28;20451;-64
2022/07/26 03:08:57;;;;;;;10.80;3.00;;;;;;;;;;5096406;28;20431;-64
2022/07/26 03:11:24;;;;;;;6.27;2.70;;;;;;;;;;5096259;28;20443;-65
2022/07/26 03:13:51;;;;;;;8.83;3.10;;;;;;;;;;5096203;28;20565;-65
2022/07/26 03:16:19;;;;;;;4.40;2.87;;;;;;;;;;5096628;28;20476;-65
2022/07/26 03:18:46;;;;;;;4.50;3.27;;;;;;;;;;5096953;28;20846;-65
2022/07/26 03:21:13;;;;;;;6.23;3.00;;;;;;;;;;5096380;28;20527;-66
2022/07/26 03:23:42;;;;;;;6.80;3.60;;;;;;;;;;5096058;28;20453;-65
2022/07/26 03:26:09;;;;;;;5.07;3.50;;;;;;;;;;5096236;28;20453;-65
2022/07/26 03:28:38;;;;;;;5.43;3.03;;;;;;;;;;5096490;28;20500;-65
2022/07/26 03:31:05;;;;;;;8.30;3.00;;;;;;;;;;5096151;28;20448;-65
2022/07/26 03:33:32;;;;;;;4.57;2.60;;;;;;;;;;5096169;28;20476;-65
2022/07/26 03:36:00;;;;;;;7.67;3.17;;;;;;;;;;5095768;28;20444;-65
2022/07/26 03:38:27;;;;;;;5.93;3.47;;;;;;;;;;5096683;28;20447;-65
2022/07/26 03:40:55;;;;;;;5.27;3.00;;;;;;;;;;5096504;28;20846;-65
2022/07/26 03:43:23;;;;;;;8.70;3.77;;;;;;;;;;5096412;28;20502;-66
2022/07/26 03:45:50;;;;;;;8.23;3.87;;;;;;;;;;5096063;28;20454;-65
2022/07/26 03:48:17;;;;;;;9.43;3.23;;;;;;;;;;5096055;28;20533;-64
2022/07/26 03:50:44;;;;;;;6.50;3.60;;;;;;;;;;5095860;28;20447;-64
2022/07/26 03:53:12;;;;;;;11.50;3.43;;;;;;;;;;5095682;28;20865;-64
2022/07/26 03:58:27;;;;;;;14.50;3.87;;;;;;;;;;5069498;28;20420;-64
2022/07/26 04:00:54;;;;;;;8.63;3.83;;;;;;;;;;5095420;28;20957;-64
2022/07/26 04:03:22;;;;;;;7.80;3.33;;;;;;;;;;5095567;28;20444;-64
2022/07/26 04:05:49;;;;;;;6.17;3.60;;;;;;;;;;5095741;28;20450;-64
2022/07/26 04:08:16;;;;;;;5.17;3.20;;;;;;;;;;5094139;28;20449;-65
2022/07/26 04:10:45;;;;;;;8.93;3.80;;;;;;;;;;5093827;28;20539;-65
2022/07/26 04:13:12;;;;;;;6.17;3.87;;;;;;;;;;5092955;28;20436;-64
2022/07/26 04:15:41;;;;;;;9.33;3.50;;;;;;;;;;5092987;28;20998;-64
2022/07/26 04:18:08;;;;;;;6.70;3.60;;;;;;;;;;5094980;28;20531;-64
2022/07/26 04:20:35;;;;;;;7.17;3.50;;;;;;;;;;5094614;28;20815;-64
2022/07/26 04:23:02;;;;;;;11.20;3.70;;;;;;;;;;5094743;28;20437;-65
2022/07/26 04:25:30;;;;;;;6.07;3.67;;;;;;;;;;5095811;28;20451;-65
2022/07/26 04:27:58;;;;;;;11.87;4.80;;;;;;;;;;5094803;28;20475;-64
2022/07/26 04:30:25;;;;;;;5.67;3.80;;;;;;;;;;5094769;28;20444;-64
2022/07/26 04:32:53;;;;;;;4.33;3.30;;;;;;;;;;5095005;28;20822;-65
2022/07/26 04:35:21;;;;;;;7.70;3.57;;;;;;;;;;5095023;28;20486;-64
2022/07/26 04:37:48;;;;;;;7.73;3.10;;;;;;;;;;5094466;28;20455;-65
2022/07/26 04:40:17;;;;;;;8.93;3.90;;;;;;;;;;5094079;28;20437;-64
2022/07/26 04:42:45;;;;;;;7.43;4.23;;;;;;;;;;5094478;28;20443;-64
2022/07/26 04:45:12;;;;;;;7.20;4.07;;;;;;;;;;5094491;28;20460;-64
2022/07/26 04:47:41;;;;;;;7.70;4.30;;;;;;;;;;5094549;28;20534;-64
2022/07/26 04:50:10;;;;;;;6.70;4.00;;;;;;;;;;5094364;28;20542;-64
2022/07/26 04:52:38;;;;;;;5.23;3.63;;;;;;;;;;5094429;28;20479;-64
2022/07/26 04:55:05;;;;;;;5.30;4.10;;;;;;;;;;5093887;28;20486;-64
2022/07/26 04:57:33;;;;;;;9.87;3.50;;;;;;;;;;5094015;28;20450;-64
2022/07/26 05:00:00;;;;;;;9.10;3.83;;;;;;;;;;5094168;28;20453;-64
2022/07/26 05:02:27;;;;;;;9.07;4.17;;;;;;;;;;5094751;28;20515;-64
2022/07/26 05:04:55;;;;;;;10.50;3.50;;;;;;;;;;5094252;28;20530;-64
2022/07/26 05:07:23;;;;;;;10.60;4.37;;;;;;;;;;5094213;28;20516;-65
2022/07/26 05:09:51;;;;;;;4.03;3.60;;;;;;;;;;5094369;28;20895;-64
2022/07/26 05:12:18;;;;;;;10.90;4.27;;;;;;;;;;5094236;28;20538;-65
2022/07/26 05:14:45;;;;;;;8.43;4.00;;;;;;;;;;5094473;28;20563;-65
2022/07/26 05:17:12;;;;;;;13.93;4.20;;;;;;;;;;5094227;28;20474;-65
2022/07/26 05:19:40;;;;;;;4.60;3.23;;;;;;;;;;5093929;28;20439;-64
2022/07/26 05:22:07;;;;;;;7.30;3.67;;;;;;;;;;5094172;28;20447;-64
2022/07/26 05:24:36;;;;;;;13.40;4.30;;;;;;;;;;5093384;28;20462;-64
2022/07/26 05:27:03;;;;;;;10.60;3.83;;;;;;;;;;5094381;28;20436;-64
2022/07/26 05:29:30;;;;;;;15.13;4.10;;;;;;;;;;5093930;28;20540;-64
2022/07/26 05:31:57;;;;;;;11.33;4.40;;;;;;;;;;5094025;28;20787;-64
2022/07/26 05:34:24;;;;;;;8.77;4.33;;;;;;;;;;5093907;28;20485;-64
2022/07/26 05:36:52;;;;;;;11.67;4.00;;;;;;;;;;5094410;28;20525;-64
2022/07/26 05:39:19;;;;;;;10.67;4.13;;;;;;;;;;5093489;28;20536;-64
2022/07/26 05:41:47;;;;;;;19.27;4.50;;;;;;;;;;5093833;28;20470;-64
2022/07/26 05:44:15;;;;;;;7.53;4.20;;;;;;;;;;5093941;28;20831;-64
2022/07/26 05:46:42;;;;;;;10.83;4.13;;;;;;;;;;5094396;28;20437;-64
2022/07/26 05:49:09;;;;;;;11.40;4.90;;;;;;;;;;5093324;28;20530;-65
2022/07/26 05:51:37;;;;;;;8.30;3.57;;;;;;;;;;5093762;28;20444;-64
2022/07/26 05:54:04;;;;;;;11.07;3.80;;;;;;;;;;5093646;28;20546;-63
2022/07/26 05:56:32;;;;;;;9.60;3.97;;;;;;;;;;5093354;28;20494;-64
2022/07/26 05:59:00;;;;;;;12.93;3.80;;;;;;;;;;5093865;28;20475;-64
2022/07/26 06:01:31;;;;;;;4.50;3.57;;;;;;;;;;5093764;28;20615;-64
2022/07/26 06:03:58;;;;;;;6.17;3.97;;;;;;;;;;5093691;28;20429;-64
2022/07/26 06:06:25;;;;;;;6.07;4.20;;;;;;;;;;5093575;28;20525;-64
2022/07/26 06:08:52;;;;;;;10.07;3.83;;;;;;;;;;5093452;28;20790;-64
2022/07/26 06:11:20;;;;;;;6.27;3.87;;;;;;;;;;5093746;28;20445;-64
2022/07/26 06:13:47;;;;;;;6.13;4.00;;;;;;;;;;5093866;28;20446;-64
2022/07/26 06:16:16;;;;;;;6.83;3.83;;;;;;;;;;5093233;28;20494;-64
2022/07/26 06:18:43;;;;;;;7.47;3.87;;;;;;;;;;5093562;28;20793;-64
2022/07/26 06:21:11;;;;;;;7.00;4.43;;;;;;;;;;5093713;28;20479;-64
2022/07/26 06:23:38;;;;;;;8.53;4.10;;;;;;;;;;5093315;28;20444;-65
2022/07/26 06:26:05;;;;;;;5.33;3.67;;;;;;;;;;5093391;28;20814;-64
2022/07/26 06:28:33;;;;;;;6.33;4.10;;;;;;;;;;5091739;28;20570;-64
2022/07/26 06:31:01;;;;;;;7.93;4.40;;;;;;;;;;5093437;28;20445;-65
2022/07/26 06:33:29;;;;;;;6.53;4.30;;;;;;;;;;5093527;28;20865;-64
2022/07/26 06:35:56;;;;;;;6.53;3.93;;;;;;;;;;5092936;28;20491;-64
2022/07/26 06:38:24;;;;;;;8.50;3.83;;;;;;;;;;5096538;28;21021;-65
2022/07/26 06:40:51;;;;;;;6.17;4.10;;;;;;;;;;5097201;28;20433;-64
2022/07/26 06:43:18;;;;;;;8.63;4.73;;;;;;;;;;5096766;28;21017;-65
2022/07/26 06:45:45;;;;;;;7.63;4.40;;;;;;;;;;5097148;28;20528;-64
2022/07/26 06:48:13;;;;;;;7.67;4.57;;;;;;;;;;5097189;28;20992;-64
2022/07/26 06:50:41;;;;;;;7.93;5.00;;;;;;;;;;5096924;28;20434;-64
2022/07/26 06:53:08;;;;;;;6.23;4.67;;;;;;;;;;5096820;28;20533;-64
2022/07/26 06:55:36;;;;;;;12.20;5.27;;;;;;;;;;5096978;28;20486;-64
2022/07/26 06:58:03;;;;;;;13.20;5.73;;;;;;;;;;5096641;28;20522;-64
2022/07/26 07:00:30;;;;;;;8.90;4.90;;;;;;;;;;5096943;28;20870;-64
2022/07/26 07:02:57;;;;;;;9.53;5.80;;;;;;;;;;5096550;28;20444;-64
2022/07/26 07:05:25;;;;;;;9.90;5.23;;;;;;;;;;5096621;28;20529;-64
2022/07/26 07:07:53;;;;;;;7.07;5.10;;;;;;;;;;5096448;28;20528;-64
2022/07/26 07:10:20;;;;;;;12.53;5.60;;;;;;;;;;5096515;28;20446;-65
2022/07/26 07:12:47;;;;;;;10.50;5.40;;;;;;;;;;5096560;28;20445;-64
2022/07/26 07:15:15;;;;;;;8.40;5.23;;;;;;;;;;5096420;28;20828;-65
2022/07/26 07:17:42;;;;;;;8.00;5.70;;;;;;;;;;5096300;28;20475;-64
2022/07/26 07:20:10;;;;;;;14.63;6.53;;;;;;;;;;5096169;28;20506;-64
2022/07/26 07:22:37;;;;;;;16.60;6.60;;;;;;;;;;5096130;28;20525;-64
2022/07/26 07:25:06;;;;;;;10.20;6.40;;;;;;;;;;5095883;28;20544;-64
2022/07/26 07:27:33;;;;;;;8.67;5.23;;;;;;;;;;5096278;28;20441;-64
2022/07/26 07:30:00;;;;;;;9.20;5.40;;;;;;;;;;5096215;28;20541;-64
2022/07/26 07:32:28;;;;;;;11.03;5.77;;;;;;;;;;5095907;28;20482;-64
2022/07/26 07:34:55;;;;;;;8.17;5.27;;;;;;;;;;5096314;28;20473;-65
2022/07/26 07:37:22;;;;;;;6.77;5.20;;;;;;;;;;5095859;28;21026;-65
2022/07/26 07:39:49;;;;;;;7.73;5.17;;;;;;;;;;5095680;28;20928;-64
2022/07/26 07:42:18;;;;;;;13.30;5.07;;;;;;;;;;5095742;28;20998;-64
2022/07/26 07:44:46;;;;;;;7.40;4.70;;;;;;;;;;5095911;28;20438;-64
2022/07/26 07:47:13;;;;;;;7.20;5.40;;;;;;;;;;5095495;28;20533;-64
2022/07/26 07:49:41;;;;;;;7.07;4.77;;;;;;;;;;5096068;28;20511;-64
2022/07/26 07:52:08;;;;;;;8.07;6.13;;;;;;;;;;5095525;28;20485;-64
2022/07/26 07:54:35;;;;;;;8.10;5.33;;;;;;;;;;5095786;28;20927;-65
2022/07/26 07:57:02;;;;;;;7.90;4.97;;;;;;;;;;5095517;28;21017;-64
2022/07/26 07:59:31;;;;;;;8.80;5.60;;;;;;;;;;5095658;28;20444;-65
2022/07/26 08:01:58;;;;;;;9.57;4.90;;;;;;;;;;5095682;28;20469;-64
2022/07/26 08:04:25;;;;;;;14.40;5.17;;;;;;;;;;5095527;28;20443;-65
2022/07/26 08:06:53;;;;;;;6.30;4.63;;;;;;;;;;5095233;28;20530;-64
2022/07/26 08:09:20;;;;;;;13.73;5.67;;;;;;;;;;5095359;28;20450;-64
2022/07/26 08:11:47;;;;;;;6.90;4.93;;;;;;;;;;5095438;28;20875;-65
2022/07/26 08:14:15;;;;;;;5.63;4.53;;;;;;;;;;5095445;28;20534;-65
2022/07/26 08:16:43;;;;;;;13.07;5.27;;;;;;;;;;5094090;28;20581;-64
2022/07/26 08:19:11;;;;;;;8.30;5.40;;;;;;;;;;5095228;28;20438;-65
2022/07/26 08:21:38;;;;;;;17.37;5.53;;;;;;;;;;5095286;28;20506;-65
2022/07/26 08:24:05;;;;;;;7.30;5.07;;;;;;;;;;5095334;28;20538;-65
2022/07/26 08:26:32;;;;;;;7.00;5.37;;;;;;;;;;5094819;28;20495;-65
2022/07/26 08:28:59;;;;;;;7.10;4.93;;;;;;;;;;5094814;28;20455;-64
2022/07/26 08:31:27;;;;;;;5.83;4.70;;;;;;;;;;5094686;28;20436;-64
2022/07/26 08:33:55;;;;;;;7.60;4.87;;;;;;;;;;5094897;28;20932;-65
2022/07/26 08:36:23;;;;;;;6.70;4.37;;;;;;;;;;5094532;28;20505;-64
2022/07/26 08:38:51;;;;;;;4.53;3.03;;;;;;;;;;5095213;28;20453;-65
2022/07/26 08:41:18;;;;;;;3.17;2.87;;;;;;;;;;5094763;28;20529;-65
2022/07/26 08:43:45;;;;;;;8.63;2.93;;;;;;;;;;5094843;28;20532;-65
2022/07/26 08:46:13;;;;;;;5.10;3.53;;;;;;;;;;5094928;28;20448;-64
2022/07/26 08:48:40;;;;;;;4.90;3.47;;;;;;;;;;5094834;28;20503;-64
2022/07/26 08:51:10;;;;;;;4.83;3.70;;;;;;;;;;5094954;28;20440;-65
2022/07/26 08:53:37;;;;;;;6.20;3.50;;;;;;;;;;5094554;28;20444;-66
2022/07/26 08:56:05;;;;;;;10.13;4.10;;;;;;;;;;5094513;28;20476;-65
2022/07/26 08:58:33;;;;;;;7.03;4.20;;;;;;;;;;5094767;28;20443;-67
2022/07/26 09:01:05;;;;;;;11.60;5.00;;;;;;;;;;5093667;28;20441;-67
2022/07/26 09:03:32;;;;;;;7.23;4.07;;;;;;;;;;5094208;28;20448;-66
2022/07/26 09:06:12;;;;;;;9.73;4.90;;;;;;;;;;5094382;28;20444;-67
2022/07/26 09:08:39;;;;;;;9.27;5.70;;;;;;;;;;5094877;28;20428;-66
2022/07/26 09:11:22;;;;;;;9.83;6.13;;;;;;;;;;5094498;28;20465;-66
2022/07/26 09:13:52;;;;;;;15.40;5.77;;;;;;;;;;5093920;28;20533;-66
2022/07/26 09:16:19;;;;;;;17.50;6.83;;;;;;;;;;5094108;28;20487;-66
2022/07/26 09:18:47;;;;;;;6.50;5.60;;;;;;;;;;5093899;28;20518;-66
2022/07/26 09:21:27;;;;;;;11.47;5.57;;;;;;;;;;5094673;28;20871;-66
2022/07/26 09:23:55;;;;;;;7.90;4.37;;;;;;;;;;5094104;28;20822;-66
2022/07/26 09:26:22;;;;;;;7.87;4.20;;;;;;;;;;5093678;28;20931;-66
2022/07/26 09:29:01;;;;;;;4.83;3.77;;;;;;;;;;5094121;28;20801;-66
2022/07/26 09:31:29;;;;;;;8.23;3.70;;;;;;;;;;5094002;28;20425;-66
2022/07/26 09:33:57;;;;;;;5.13;4.60;;;;;;;;;;5093973;28;20875;-66
2022/07/26 09:36:25;;;;;;;7.13;4.00;;;;;;;;;;5093429;28;20501;-67
2022/07/26 09:38:56;;;;;;;5.00;3.37;;;;;;;;;;5093900;28;20547;-66
2022/07/26 09:41:25;;;;;;;6.43;3.80;;;;;;;;;;5093518;28;20566;-66
2022/07/26 09:43:53;;;;;;;4.80;3.60;;;;;;;;;;5093815;28;20530;-67
2022/07/26 09:46:20;;;;;;;5.77;4.03;;;;;;;;;;5093876;28;21020;-67
2022/07/26 09:48:48;;;;;;;8.03;4.20;;;;;;;;;;5094437;28;20527;-67
2022/07/26 09:51:15;;;;;;;6.73;4.10;;;;;;;;;;5093374;28;20475;-67
2022/07/26 09:53:42;;;;;;;5.60;3.50;;;;;;;;;;5093943;28;20448;-67
2022/07/26 09:56:11;;;;;;;4.77;3.93;;;;;;;;;;5093622;28;20472;-67
2022/07/26 09:58:38;;;;;;;3.23;2.90;;;;;;;;;;5093678;28;20448;-67
2022/07/26 10:01:06;;;;;;;6.57;3.57;;;;;;;;;;5093595;28;21024;-67
2022/07/26 10:03:34;;;;;;;6.27;3.60;;;;;;;;;;5093295;28;20504;-67
2022/07/26 10:06:02;;;;;;;4.50;2.90;;;;;;;;;;5093574;28;20446;-67
2022/07/26 10:08:30;;;;;;;5.23;3.73;;;;;;;;;;5093885;28;20448;-66
2022/07/26 10:11:02;;;;;;;2.70;2.13;;;;;;;;;;5093251;28;20544;-66
2022/07/26 10:13:31;;;;;;;3.57;1.53;;;;;;;;;;5097601;28;20461;-66
2022/07/26 10:15:58;;;;;;;1.77;1.67;;;;;;;;;;5097915;28;20490;-67
2022/07/26 10:18:41;;;;;;;1.93;1.60;;;;;;;;;;5097688;28;20503;-66
2022/07/26 10:21:18;;;;;;;4.07;2.07;;;;;;;;;;5096217;28;20447;-67
2022/07/26 10:23:47;;;;;;;6.20;1.83;;;;;;;;;;5097713;28;20476;-66
2022/07/26 10:26:34;;;;;;;3.63;3.30;;;;;;;;;;5097613;28;20523;-67
2022/07/26 10:29:16;;;;;;;1.90;1.60;;;;;;;;;;5098066;28;20424;-67
2022/07/26 10:31:45;;;;;;;3.40;1.80;;;;;;;;;;5096995;28;20527;-68
2022/07/26 10:34:29;;;;;;;2.87;1.63;;;;;;;;;;5097519;28;20440;-67
2022/07/26 10:36:58;;;;;;;3.30;2.33;;;;;;;;;;5097449;28;20469;-67
2022/07/26 10:39:26;;;;;;;6.17;2.13;;;;;;;;;;5097385;28;20448;-67
2022/07/26 10:41:58;;;;;;;4.50;2.30;;;;;;;;;;5097285;28;20858;-68
2022/07/26 10:44:26;;;;;;;3.37;2.27;;;;;;;;;;5097418;28;20435;-67
2022/07/26 10:47:18;;;;;;;4.23;2.77;;;;;;;;;;5096845;28;20539;-68
2022/07/26 10:49:55;;;;;;;2.60;2.40;;;;;;;;;;5097682;28;20421;-67
2022/07/26 10:52:24;;;;;;;2.40;2.20;;;;;;;;;;5096786;28;20443;-67
2022/07/26 10:55:16;;;;;;;2.87;2.67;;;;;;;;;;5096660;28;20529;-67
2022/07/26 10:57:44;;;;;;;2.83;2.50;;;;;;;;;;5097365;28;20518;-66
2022/07/26 11:00:13;;;;;;;2.97;2.60;;;;;;;;;;5097693;28;20840;-66
2022/07/26 11:02:43;;;;;;;4.93;3.17;;;;;;;;;;5096914;28;20478;-67
2022/07/26 11:05:14;;;;;;;4.20;2.73;;;;;;;;;;5096844;28;20439;-66
2022/07/26 11:07:49;;;;;;;5.07;3.00;;;;;;;;;;5096543;28;20537;-67
2022/07/26 11:10:16;;;;;;;4.27;3.53;;;;;;;;;;5096787;28;20521;-66
2022/07/26 11:12:43;;;;;;;4.20;3.30;;;;;;;;;;5096380;28;20452;-66
2022/07/26 11:15:17;;;;;;;7.40;4.17;;;;;;;;;;5096374;28;20438;-66
2022/07/26 11:17:45;;;;;;;5.10;3.37;;;;;;;;;;5096646;28;20482;-66
2022/07/26 11:20:24;;;;;;;4.40;3.17;;;;;;;;;;5096625;28;20446;-67
2022/07/26 11:22:52;;;;;;;2.60;2.40;;;;;;;;;;5096015;28;20440;-67
2022/07/26 11:25:21;;;;;;;7.60;3.40;;;;;;;;;;5097175;28;20607;-67
2022/07/26 11:27:59;;;;;;;5.17;2.70;;;;;;;;;;5096093;28;20443;-67
2022/07/26 11:30:26;;;;;;;2.90;2.70;;;;;;;;;;5096126;28;20520;-67
2022/07/26 11:32:57;;;;;;;2.33;2.13;;;;;;;;;;5095908;28;20488;-67
2022/07/26 11:35:25;;;;;;;2.53;2.10;;;;;;;;;;5095967;28;20923;-67
2022/07/26 11:37:53;;;;;;;3.77;2.57;;;;;;;;;;5096650;28;20484;-67
2022/07/26 11:40:42;;;;;;;3.17;2.40;;;;;;;;;;5096377;28;20519;-67
2022/07/26 11:43:09;;;;;;;2.57;2.37;;;;;;;;;;5096477;28;20508;-67
2022/07/26 11:45:36;;;;;;;5.77;3.00;;;;;;;;;;5095699;28;20436;-67
2022/07/26 11:48:05;;;;;;;3.90;2.60;;;;;;;;;;5096311;28;20475;-66
2022/07/26 11:50:33;;;;;;;3.20;2.90;;;;;;;;;;5096452;28;20528;-66
2022/07/26 11:53:00;;;;;;;7.87;2.97;;;;;;;;;;5095467;28;20531;-67
2022/07/26 11:55:28;;;;;;;4.40;3.00;;;;;;;;;;5096012;28;20489;-67
2022/07/26 11:57:55;;;;;;;5.80;2.90;;;;;;;;;;5095643;28;20880;-67
2022/07/26 12:00:23;;;;;;;2.60;2.40;;;;;;;;;;5095770;28;20526;-66
2022/07/26 12:02:50;;;;;;;3.40;3.07;;;;;;;;;;5095315;28;20436;-67
2022/07/26 12:05:19;;;;;;;4.43;3.20;;;;;;;;;;5096282;28;20518;-65
2022/07/26 12:07:53;;;;;;;3.77;3.20;;;;;;;;;;5095818;28;20815;-66
2022/07/26 12:10:20;;;;;;;4.00;3.17;;;;;;;;;;5095234;28;20436;-66
2022/07/26 12:12:48;;;;;;;6.23;3.13;;;;;;;;;;5095115;28;20926;-66
2022/07/26 12:15:15;;;;;;;3.87;2.70;;;;;;;;;;5095808;28;20774;-66
2022/07/26 12:17:57;;;;;;;4.87;2.77;;;;;;;;;;5095648;28;20516;-66
2022/07/26 12:20:26;;;;;;;4.83;3.00;;;;;;;;;;5095046;28;20439;-66
2022/07/26 12:22:56;;;;;;;3.97;2.87;;;;;;;;;;5095157;28;20441;-66
2022/07/26 12:25:26;;;;;;;4.90;2.80;;;;;;;;;;5094860;28;20449;-66
2022/07/26 12:27:53;;;;;;;6.37;2.60;;;;;;;;;;5095190;28;20536;-66
2022/07/26 12:30:21;;;;;;;4.67;2.77;;;;;;;;;;5094859;28;20957;-65
2022/07/26 12:32:50;;;;;;;4.13;2.53;;;;;;;;;;5095399;28;20796;-65
2022/07/26 12:35:24;;;;;;;6.03;3.27;;;;;;;;;;5093781;28;20524;-66
2022/07/26 12:37:53;;;;;;;3.33;2.40;;;;;;;;;;5095419;28;20470;-65
2022/07/26 12:40:21;;;;;;;5.40;2.50;;;;;;;;;;5094845;28;20440;-65
2022/07/26 12:42:55;;;;;;;6.00;2.50;;;;;;;;;;5095172;28;20437;-65
2022/07/26 12:45:24;;;;;;;4.50;2.10;;;;;;;;;;5094823;28;20450;-66
2022/07/26 12:47:52;;;;;;;2.07;1.93;;;;;;;;;;5095053;28;20540;-66
2022/07/26 12:50:21;;;;;;;7.10;2.70;;;;;;;;;;5094655;28;20438;-66
2022/07/26 12:52:48;;;;;;;4.17;2.30;;;;;;;;;;5094577;28;20489;-66
2022/07/26 12:55:19;;;;;;;3.60;2.17;;;;;;;;;;5094849;28;20536;-66
2022/07/26 12:57:47;;;;;;;3.37;2.60;;;;;;;;;;5094328;28;20467;-66
2022/07/26 13:00:16;;;;;;;4.87;1.77;;;;;;;;;;5094518;28;20531;-66
2022/07/26 13:02:43;;;;;;;2.33;2.10;;;;;;;;;;5094585;28;20539;-66
2022/07/26 13:05:11;;;;;;;2.80;2.60;;;;;;;;;;5094455;28;20436;-65
2022/07/26 13:07:38;;;;;;;3.87;2.00;;;;;;;;;;5094705;28;20535;-65
2022/07/26 13:10:06;;;;;;;4.60;2.63;;;;;;;;;;5094365;28;20454;-66
2022/07/26 13:12:35;;;;;;;7.33;2.67;;;;;;;;;;5094384;28;20815;-66
2022/07/26 13:15:02;;;;;;;2.83;2.50;;;;;;;;;;5094444;28;20438;-66
2022/07/26 13:17:29;;;;;;;7.43;2.70;;;;;;;;;;5092959;28;20490;-66
2022/07/26 13:19:57;;;;;;;3.03;2.83;;;;;;;;;;5093538;28;20447;-66
2022/07/26 13:22:24;;;;;;;4.23;2.63;;;;;;;;;;5093669;28;20440;-66
2022/07/26 13:24:51;;;;;;;6.63;2.60;;;;;;;;;;5093625;28;20450;-66
2022/07/26 13:27:18;;;;;;;2.90;2.70;;;;;;;;;;5093505;28;20449;-66
2022/07/26 13:29:47;;;;;;;3.70;2.80;;;;;;;;;;5094320;28;20443;-66
2022/07/26 13:32:14;;;;;;;3.23;2.50;;;;;;;;;;5094004;28;20826;-66
2022/07/26 13:34:42;;;;;;;4.30;2.50;;;;;;;;;;5093882;28;20448;-65
2022/07/26 13:37:09;;;;;;;4.60;2.60;;;;;;;;;;5093903;28;20483;-66
2022/07/26 13:39:36;;;;;;;5.80;3.13;;;;;;;;;;5093853;28;20463;-66
2022/07/26 13:42:04;;;;;;;4.47;2.90;;;;;;;;;;5094100;28;20445;-65
2022/07/26 13:44:31;;;;;;;4.50;3.07;;;;;;;;;;5093411;28;20489;-64
2022/07/26 13:47:00;;;;;;;3.53;2.40;;;;;;;;;;5093208;28;20461;-65
2022/07/26 13:49:28;;;;;;;10.23;3.07;;;;;;;;;;5093285;28;20520;-65
2022/07/26 13:51:59;;;;;;;3.10;2.77;;;;;;;;;;5093435;28;20442;-66
2022/07/26 13:54:27;;;;;;;5.47;3.37;;;;;;;;;;5093493;28;21253;-65
2022/07/26 13:56:55;;;;;;;11.60;2.63;;;;;;;;;;5093565;28;20563;-65
2022/07/26 13:59:22;;;;;;;3.23;2.57;;;;;;;;;;5093643;28;20524;-66
2022/07/26 14:01:49;;;;;;;8.80;3.07;;;;;;;;;;5093237;28;20534;-65
2022/07/26 14:04:18;;;;;;;3.07;2.17;;;;;;;;;;5093978;28;20804;-66
2022/07/26 14:06:45;;;;;;;3.33;2.67;;;;;;;;;;5093636;28;20532;-66
2022/07/26 14:09:12;;;;;;;3.40;2.33;;;;;;;;;;5093284;28;21017;-66
2022/07/26 14:11:39;;;;;;;6.07;2.77;;;;;;;;;;5093613;28;20438;-68
2022/07/26 14:14:07;;;;;;;3.83;2.23;;;;;;;;;;5093286;28;20526;-67
2022/07/26 14:16:34;;;;;;;2.30;2.10;;;;;;;;;;5092830;28;20472;-66
2022/07/26 14:19:02;;;;;;;3.40;2.50;;;;;;;;;;5093552;28;20530;-66
2022/07/26 14:21:32;;;;;;;2.10;1.90;;;;;;;;;;5093386;28;20436;-66
2022/07/26 14:23:59;;;;;;;2.47;1.70;;;;;;;;;;5093243;28;20481;-67
2022/07/26 14:26:27;;;;;;;2.10;1.50;;;;;;;;;;5093020;28;20526;-66
2022/07/26 14:28:55;;;;;;;3.17;1.70;;;;;;;;;;5093126;28;20448;-66
2022/07/26 14:31:22;;;;;;;2.90;1.60;;;;;;;;;;5092922;28;20481;-67
2022/07/26 14:33:50;;;;;;;3.23;1.57;;;;;;;;;;5093032;28;20481;-66
2022/07/26 14:36:17;;;;;;;5.40;1.90;;;;;;;;;;5093212;28;20438;-66
2022/07/26 14:38:46;;;;;;;5.07;1.93;;;;;;;;;;5093109;28;20474;-66
2022/07/26 14:41:13;;;;;;;3.40;1.67;;;;;;;;;;5093340;28;20770;-70
2022/07/26 14:43:41;;;;;;;2.40;1.67;;;;;;;;;;5092970;28;20445;-66
2022/07/26 14:46:09;;;;;;;2.37;1.60;;;;;;;;;;5092686;28;20456;-64
2022/07/26 14:48:36;;;;;;;2.50;1.40;;;;;;;;;;5093255;28;20450;-64
2022/07/26 14:51:04;;;;;;;2.30;1.67;;;;;;;;;;5093143;28;20826;-65